createdAt,value
2023-05-14T00:00:00.386Z,0.2
2023-05-14T00:05:00.418Z,0.0
2023-05-14T00:10:00.403Z,0.0
2023-05-14T00:15:00.361Z,0.0
2023-05-14T00:20:00.386Z,0.0
2023-05-14T00:25:00.442Z,0.0
2023-05-14T00:30:00.359Z,0.0
2023-05-14T00:35:00.469Z,0.0
2023-05-14T00:40:00.365Z,0.0
2023-05-14T00:45:00.359Z,0.0
2023-05-14T00:50:00.355Z,0.0
2023-05-14T00:55:00.355Z,0.0
2023-05-14T01:00:00.408Z,0.0
2023-05-14T01:05:00.384Z,0.0
2023-05-14T01:10:00.357Z,0.0
2023-05-14T01:15:00.375Z,0.0
2023-05-14T01:20:00.502Z,0.0
2023-05-14T01:25:00.525Z,0.0
2023-05-14T01:30:00.365Z,0.0
2023-05-14T01:35:00.371Z,0.0
2023-05-14T01:40:00.397Z,0.2
2023-05-14T01:45:00.371Z,0.0
2023-05-14T01:50:00.354Z,0.2
2023-05-14T01:55:00.367Z,1.6
2023-05-14T02:00:00.368Z,1.6
2023-05-14T02:05:00.377Z,2.0
2023-05-14T02:10:00.435Z,1.6
2023-05-14T02:15:00.360Z,1.5
2023-05-14T02:20:00.354Z,1.5
2023-05-14T02:25:00.445Z,1.3
2023-05-14T02:30:01.084Z,1.6
2023-05-14T02:35:00.356Z,0.4
2023-05-14T02:40:00.378Z,0.6
2023-05-14T02:45:00.401Z,0.0
2023-05-14T02:50:00.379Z,0.0
2023-05-14T02:55:00.360Z,0.0
2023-05-14T03:00:00.785Z,0.0
2023-05-14T03:05:00.372Z,0.0
2023-05-14T03:10:00.444Z,0.0
2023-05-14T03:15:00.365Z,0.0
2023-05-14T03:20:00.355Z,0.5
2023-05-14T03:25:00.371Z,0.3
2023-05-14T03:30:00.392Z,0.5
2023-05-14T03:35:00.369Z,0.0
2023-05-14T03:40:00.366Z,0.0
2023-05-14T03:45:00.501Z,0.8
2023-05-14T03:50:00.362Z,0.0
2023-05-14T03:55:00.352Z,0.8
2023-05-14T04:00:00.375Z,0.0
2023-05-14T04:05:00.371Z,0.4
2023-05-14T04:10:04.270Z,0.1
2023-05-14T04:15:00.357Z,0.1
2023-05-14T04:20:00.361Z,0.1
2023-05-14T04:25:00.401Z,0.3
2023-05-14T04:30:00.425Z,0.4
2023-05-14T04:35:00.440Z,0.4
2023-05-14T04:40:00.394Z,0.4
2023-05-14T04:45:00.366Z,0.0
2023-05-14T04:50:00.482Z,0.1
2023-05-14T04:55:00.437Z,0.0
2023-05-14T05:00:00.418Z,1.4
2023-05-14T05:05:00.369Z,0.2
2023-05-14T05:10:00.410Z,0.1
2023-05-14T05:15:00.340Z,0.0
2023-05-14T05:20:00.437Z,0.1
2023-05-14T05:25:00.383Z,0.0
2023-05-14T05:30:00.372Z,0.0
2023-05-14T05:35:00.361Z,0.6
2023-05-14T05:40:00.362Z,0.2
2023-05-14T05:45:00.407Z,0.4
2023-05-14T05:50:00.420Z,0.6
2023-05-14T05:55:00.360Z,1.1
2023-05-14T06:00:00.412Z,1.1
2023-05-14T06:05:00.449Z,0.4
2023-05-14T06:10:00.367Z,0.0
2023-05-14T06:15:00.394Z,0.4
2023-05-14T06:20:00.470Z,0.0
2023-05-14T06:25:00.351Z,0.0
2023-05-14T06:30:00.382Z,0.4
2023-05-14T06:35:00.444Z,0.2
2023-05-14T06:40:00.516Z,0.9
2023-05-14T06:45:00.354Z,0.9
2023-05-14T06:50:00.359Z,2.3
2023-05-14T06:55:00.402Z,0.3
2023-05-14T07:00:03.612Z,2.8
2023-05-14T07:05:00.409Z,1.0
2023-05-14T07:10:00.371Z,0.7
2023-05-14T07:15:00.373Z,0.9
2023-05-14T07:20:00.373Z,0.0
2023-05-14T07:25:00.382Z,0.3
2023-05-14T07:30:00.355Z,0.6
2023-05-14T07:35:00.382Z,0.4
2023-05-14T07:40:00.369Z,0.0
2023-05-14T07:45:00.374Z,1.0
2023-05-14T07:50:00.362Z,0.4
2023-05-14T07:55:00.378Z,0.7
2023-05-14T08:00:00.453Z,1.1
2023-05-14T08:05:00.373Z,1.8
2023-05-14T08:10:00.388Z,0.3
2023-05-14T08:15:00.449Z,0.2
2023-05-14T08:20:00.316Z,2.7
2023-05-14T08:25:00.372Z,1.5
2023-05-14T08:30:00.360Z,1.6
2023-05-14T08:35:00.402Z,2.3
2023-05-14T08:40:00.373Z,1.5
2023-05-14T08:45:00.429Z,4.0
2023-05-14T08:50:00.361Z,3.5
2023-05-14T08:55:00.421Z,3.1
2023-05-14T09:00:00.631Z,1.9
2023-05-14T09:05:00.560Z,2.0
2023-05-14T09:10:00.379Z,1.6
2023-05-14T09:15:00.372Z,5.5
2023-05-14T09:20:00.368Z,4.1
2023-05-14T09:25:00.437Z,5.7
2023-05-14T09:30:00.440Z,4.5
2023-05-14T09:35:00.354Z,3.9
2023-05-14T09:40:00.420Z,2.5
2023-05-14T09:45:00.359Z,6.0
2023-05-14T09:50:00.416Z,4.9
2023-05-14T09:55:00.391Z,4.0
2023-05-14T10:00:00.567Z,7.9
2023-05-14T10:05:00.372Z,6.8
2023-05-14T10:10:00.416Z,5.9
2023-05-14T10:15:00.357Z,3.7
2023-05-14T10:20:00.381Z,7.7
2023-05-14T10:25:00.487Z,3.8
2023-05-14T10:30:00.584Z,5.4
2023-05-14T10:35:00.373Z,2.4
2023-05-14T10:40:00.375Z,8.8
2023-05-14T10:45:00.371Z,10.3
2023-05-14T10:50:00.361Z,7.3
2023-05-14T10:55:03.924Z,8.5
2023-05-14T11:00:00.370Z,10.2
2023-05-14T11:05:00.378Z,10.1
2023-05-14T11:10:00.366Z,12.4
2023-05-14T11:15:00.367Z,9.2
2023-05-14T11:20:00.374Z,9.6
2023-05-14T11:25:00.357Z,6.2
2023-05-14T11:30:00.383Z,6.7
2023-05-14T11:35:00.378Z,6.6
2023-05-14T11:40:00.405Z,7.1
2023-05-14T11:45:00.847Z,6.9
2023-05-14T11:50:00.428Z,9.7
2023-05-14T11:55:00.385Z,6.2
2023-05-14T12:00:00.394Z,5.1
2023-05-14T12:05:00.369Z,5.9
2023-05-14T12:10:00.366Z,6.4
2023-05-14T12:15:00.565Z,1.9
2023-05-14T12:20:00.378Z,3.6
2023-05-14T12:25:00.355Z,3.9
2023-05-14T12:35:00.381Z,7.1
2023-05-14T12:40:00.409Z,4.2
2023-05-14T12:45:00.383Z,2.4
2023-05-14T12:50:00.428Z,4.7
2023-05-14T12:55:00.370Z,1.8
2023-05-14T13:00:00.502Z,3.0
2023-05-14T13:05:00.363Z,1.5
2023-05-14T13:10:00.442Z,1.2
2023-05-14T13:15:00.380Z,1.3
2023-05-14T13:20:00.383Z,0.6
2023-05-14T13:25:00.375Z,0.5
2023-05-14T13:30:00.419Z,1.1
2023-05-14T13:35:00.399Z,2.1
2023-05-14T13:40:00.445Z,4.0
2023-05-14T13:45:00.425Z,1.6
2023-05-14T13:50:00.368Z,3.4
2023-05-14T13:55:00.372Z,4.8
2023-05-14T14:00:00.369Z,1.0
2023-05-14T14:05:00.494Z,5.3
2023-05-14T14:10:00.410Z,3.9
2023-05-14T14:15:00.404Z,3.7
2023-05-14T14:20:00.581Z,5.4
2023-05-14T14:25:00.464Z,5.9
2023-05-14T14:30:00.364Z,3.1
2023-05-14T14:35:00.418Z,8.4
2023-05-14T14:40:00.322Z,1.9
2023-05-14T14:45:00.366Z,1.5
2023-05-14T14:50:00.378Z,5.1
2023-05-14T14:55:00.355Z,9.4
2023-05-14T15:00:02.832Z,7.6
2023-05-14T15:05:00.398Z,5.2
2023-05-14T15:10:00.499Z,3.2
2023-05-14T15:15:00.383Z,3.9
2023-05-14T15:20:00.497Z,2.1
2023-05-14T15:25:00.365Z,4.5
2023-05-14T15:30:00.375Z,5.6
2023-05-14T15:35:00.411Z,5.7
2023-05-14T15:40:00.373Z,7.2
2023-05-14T15:45:00.384Z,5.8
2023-05-14T15:50:00.374Z,2.5
2023-05-14T15:55:00.412Z,3.9
2023-05-14T16:00:00.363Z,2.9
2023-05-14T16:05:00.509Z,5.9
2023-05-14T16:10:00.376Z,4.9
2023-05-14T16:15:00.439Z,2.4
2023-05-14T16:20:00.416Z,2.1
2023-05-14T16:25:03.590Z,1.8
2023-05-14T16:30:00.445Z,3.0
2023-05-14T16:35:00.430Z,2.4
2023-05-14T16:40:00.384Z,2.6
2023-05-14T16:45:00.424Z,2.6
2023-05-14T16:50:00.346Z,4.3
2023-05-14T16:55:00.624Z,3.7
2023-05-14T17:00:00.526Z,5.3
2023-05-14T17:05:00.702Z,1.9
2023-05-14T17:10:00.587Z,1.4
2023-05-14T17:15:04.560Z,2.7
2023-05-14T17:20:00.993Z,1.0
2023-05-14T17:25:00.401Z,0.4
2023-05-14T17:30:00.554Z,1.5
2023-05-14T17:35:00.366Z,1.8
2023-05-14T17:40:00.341Z,1.7
2023-05-14T17:45:00.378Z,2.1
2023-05-14T17:50:00.351Z,2.4
2023-05-14T17:55:00.374Z,0.8
2023-05-14T18:00:00.421Z,2.0
2023-05-14T18:05:00.388Z,0.6
2023-05-14T18:10:00.368Z,1.8
2023-05-14T18:15:00.391Z,0.8
2023-05-14T18:20:00.379Z,0.2
2023-05-14T18:25:00.425Z,0.0
2023-05-14T18:30:00.627Z,0.0
2023-05-14T18:35:00.387Z,0.1
2023-05-14T18:40:00.382Z,0.0
2023-05-14T18:45:00.401Z,0.0
2023-05-14T18:50:00.521Z,0.0
2023-05-14T18:55:00.475Z,0.0
2023-05-14T19:00:00.681Z,0.0
2023-05-14T19:05:00.367Z,0.0
2023-05-14T19:10:00.489Z,0.0
2023-05-14T19:15:00.389Z,0.0
2023-05-14T19:20:00.406Z,0.0
2023-05-14T19:25:00.590Z,0.0
2023-05-14T19:30:00.398Z,0.0
2023-05-14T19:35:00.642Z,0.0
2023-05-14T19:40:00.390Z,0.0
2023-05-14T19:45:00.494Z,0.0
2023-05-14T19:50:00.381Z,0.0
2023-05-14T19:55:00.373Z,0.0
2023-05-14T20:00:00.649Z,0.0
2023-05-14T20:05:00.357Z,0.0
2023-05-14T20:10:00.591Z,0.0
2023-05-14T20:15:00.370Z,0.0
2023-05-14T20:20:00.394Z,0.0
2023-05-14T20:25:00.373Z,1.1
2023-05-14T20:40:00.432Z,1.0
2023-05-14T20:45:00.280Z,0.5
2023-05-14T20:50:00.315Z,0.3
2023-05-14T20:55:02.523Z,0.2
2023-05-14T21:00:00.358Z,0.0
2023-05-14T21:05:00.472Z,0.0
2023-05-14T21:10:00.339Z,0.0
2023-05-14T21:15:00.276Z,0.0
2023-05-14T21:20:00.329Z,0.0
2023-05-14T21:25:00.338Z,0.0
2023-05-14T21:30:00.361Z,0.0
2023-05-14T21:35:00.330Z,0.0
2023-05-14T21:40:00.307Z,0.0
2023-05-14T21:45:00.361Z,0.0
2023-05-14T21:50:00.358Z,0.0
2023-05-14T21:55:00.264Z,0.0
2023-05-14T22:00:00.380Z,0.0
2023-05-14T22:05:00.326Z,0.0
2023-05-14T22:10:00.328Z,0.0
2023-05-14T22:15:00.326Z,0.0
2023-05-14T22:20:00.635Z,0.0
2023-05-14T22:25:00.318Z,0.0
2023-05-14T22:30:00.361Z,0.0
2023-05-14T22:35:00.258Z,0.0
2023-05-14T22:40:00.325Z,0.0
2023-05-14T22:45:00.331Z,0.0
2023-05-14T22:50:00.300Z,0.0
2023-05-14T22:55:00.258Z,0.0
2023-05-14T23:00:00.352Z,0.0
2023-05-14T23:05:00.329Z,0.0
2023-05-14T23:10:00.733Z,0.0
2023-05-14T23:15:00.312Z,0.0
2023-05-14T23:20:00.418Z,0.0
2023-05-14T23:25:00.350Z,0.0
2023-05-14T23:30:00.328Z,0.0
2023-05-14T23:35:00.306Z,0.0
2023-05-14T23:40:00.355Z,0.0
2023-05-14T23:45:00.284Z,0.0
2023-05-14T23:50:00.329Z,0.0
2023-05-14T23:55:00.284Z,0.0
